sensor_id;sensor_type;location;lat;lon;timestamp;P1;durP1;ratioP1;P2;durP2;ratioP2
84260;SDS011;74405;44.868;18.808;2024-02-21T00:01:40;22.17;;;12.20;;
84260;SDS011;74405;44.868;18.808;2024-02-21T00:04:05;20.77;;;12.15;;
84260;SDS011;74405;44.868;18.808;2024-02-21T00:06:31;20.90;;;12.13;;
84260;SDS011;74405;44.868;18.808;2024-02-21T00:08:57;18.25;;;11.70;;
84260;SDS011;74405;44.868;18.808;2024-02-21T00:11:22;19.05;;;11.60;;
84260;SDS011;74405;44.868;18.808;2024-02-21T00:13:47;26.17;;;13.82;;
84260;SDS011;74405;44.868;18.808;2024-02-21T00:16:13;22.45;;;13.07;;
84260;SDS011;74405;44.868;18.808;2024-02-21T00:18:41;22.55;;;12.82;;
84260;SDS011;74405;44.868;18.808;2024-02-21T00:21:06;21.15;;;13.38;;
84260;SDS011;74405;44.868;18.808;2024-02-21T00:23:32;22.80;;;14.60;;
84260;SDS011;74405;44.868;18.808;2024-02-21T00:25:57;22.27;;;13.75;;
84260;SDS011;74405;44.868;18.808;2024-02-21T00:28:22;23.42;;;15.13;;
84260;SDS011;74405;44.868;18.808;2024-02-21T00:30:48;25.30;;;14.90;;
84260;SDS011;74405;44.868;18.808;2024-02-21T00:33:16;28.40;;;15.82;;
84260;SDS011;74405;44.868;18.808;2024-02-21T00:35:41;27.20;;;15.70;;
84260;SDS011;74405;44.868;18.808;2024-02-21T00:38:07;30.67;;;17.63;;
84260;SDS011;74405;44.868;18.808;2024-02-21T00:40:32;31.02;;;16.00;;
84260;SDS011;74405;44.868;18.808;2024-02-21T00:42:58;27.05;;;16.88;;
84260;SDS011;74405;44.868;18.808;2024-02-21T00:45:23;26.02;;;14.77;;
84260;SDS011;74405;44.868;18.808;2024-02-21T00:47:48;26.27;;;14.60;;
84260;SDS011;74405;44.868;18.808;2024-02-21T00:50:14;23.02;;;13.85;;
84260;SDS011;74405;44.868;18.808;2024-02-21T00:52:39;22.35;;;13.07;;
84260;SDS011;74405;44.868;18.808;2024-02-21T00:55:05;21.58;;;12.57;;
84260;SDS011;74405;44.868;18.808;2024-02-21T00:57:31;23.02;;;12.60;;
84260;SDS011;74405;44.868;18.808;2024-02-21T00:59:57;21.80;;;12.25;;
84260;SDS011;74405;44.868;18.808;2024-02-21T01:02:22;19.77;;;12.32;;
84260;SDS011;74405;44.868;18.808;2024-02-21T01:04:48;21.05;;;12.15;;
84260;SDS011;74405;44.868;18.808;2024-02-21T01:07:13;16.90;;;10.98;;
84260;SDS011;74405;44.868;18.808;2024-02-21T01:09:39;18.60;;;10.90;;
84260;SDS011;74405;44.868;18.808;2024-02-21T01:12:04;17.58;;;11.23;;
84260;SDS011;74405;44.868;18.808;2024-02-21T01:14:30;19.23;;;11.57;;
84260;SDS011;74405;44.868;18.808;2024-02-21T01:16:55;18.27;;;10.90;;
84260;SDS011;74405;44.868;18.808;2024-02-21T01:19:20;15.35;;;10.60;;
84260;SDS011;74405;44.868;18.808;2024-02-21T01:21:46;21.55;;;11.48;;
84260;SDS011;74405;44.868;18.808;2024-02-21T01:24:11;23.77;;;13.98;;
84260;SDS011;74405;44.868;18.808;2024-02-21T01:26:37;22.05;;;14.23;;
84260;SDS011;74405;44.868;18.808;2024-02-21T01:29:02;25.60;;;14.45;;
84260;SDS011;74405;44.868;18.808;2024-02-21T01:31:28;23.00;;;13.52;;
84260;SDS011;74405;44.868;18.808;2024-02-21T01:33:53;22.38;;;12.90;;
84260;SDS011;74405;44.868;18.808;2024-02-21T01:36:19;19.63;;;11.45;;
84260;SDS011;74405;44.868;18.808;2024-02-21T01:38:44;18.52;;;11.77;;
84260;SDS011;74405;44.868;18.808;2024-02-21T01:41:09;19.77;;;11.75;;
84260;SDS011;74405;44.868;18.808;2024-02-21T01:43:35;19.95;;;11.20;;
84260;SDS011;74405;44.868;18.808;2024-02-21T01:46:00;19.15;;;11.77;;
84260;SDS011;74405;44.868;18.808;2024-02-21T01:48:26;16.80;;;9.70;;
84260;SDS011;74405;44.868;18.808;2024-02-21T01:50:54;17.40;;;10.00;;
84260;SDS011;74405;44.868;18.808;2024-02-21T01:53:21;16.65;;;10.30;;
84260;SDS011;74405;44.868;18.808;2024-02-21T01:55:47;13.27;;;9.45;;
84260;SDS011;74405;44.868;18.808;2024-02-21T01:58:15;12.80;;;9.23;;
84260;SDS011;74405;44.868;18.808;2024-02-21T02:00:45;15.15;;;9.93;;
84260;SDS011;74405;44.868;18.808;2024-02-21T02:03:11;15.63;;;9.45;;
84260;SDS011;74405;44.868;18.808;2024-02-21T02:05:49;15.52;;;9.32;;
84260;SDS011;74405;44.868;18.808;2024-02-21T02:10:40;17.65;;;9.52;;
84260;SDS011;74405;44.868;18.808;2024-02-21T02:13:06;15.55;;;9.63;;
84260;SDS011;74405;44.868;18.808;2024-02-21T02:15:44;17.00;;;10.20;;
84260;SDS011;74405;44.868;18.808;2024-02-21T02:18:11;20.05;;;10.60;;
84260;SDS011;74405;44.868;18.808;2024-02-21T02:20:37;17.80;;;10.25;;
84260;SDS011;74405;44.868;18.808;2024-02-21T02:25:47;12.10;;;8.40;;
84260;SDS011;74405;44.868;18.808;2024-02-21T02:28:17;15.13;;;9.40;;
84260;SDS011;74405;44.868;18.808;2024-02-21T02:30:43;15.02;;;8.60;;
84260;SDS011;74405;44.868;18.808;2024-02-21T02:33:08;14.95;;;8.70;;
84260;SDS011;74405;44.868;18.808;2024-02-21T02:35:34;12.75;;;8.20;;
84260;SDS011;74405;44.868;18.808;2024-02-21T02:38:01;15.93;;;8.88;;
84260;SDS011;74405;44.868;18.808;2024-02-21T02:40:27;12.35;;;8.15;;
84260;SDS011;74405;44.868;18.808;2024-02-21T02:42:53;15.15;;;8.82;;
84260;SDS011;74405;44.868;18.808;2024-02-21T02:45:20;12.60;;;8.55;;
84260;SDS011;74405;44.868;18.808;2024-02-21T02:47:46;15.73;;;8.02;;
84260;SDS011;74405;44.868;18.808;2024-02-21T02:50:11;12.27;;;7.65;;
84260;SDS011;74405;44.868;18.808;2024-02-21T02:52:37;13.50;;;8.27;;
84260;SDS011;74405;44.868;18.808;2024-02-21T02:55:03;16.65;;;8.35;;
84260;SDS011;74405;44.868;18.808;2024-02-21T02:57:28;12.75;;;8.60;;
84260;SDS011;74405;44.868;18.808;2024-02-21T02:59:54;11.80;;;8.57;;
84260;SDS011;74405;44.868;18.808;2024-02-21T03:02:19;13.38;;;8.30;;
84260;SDS011;74405;44.868;18.808;2024-02-21T03:04:44;11.98;;;8.27;;
84260;SDS011;74405;44.868;18.808;2024-02-21T03:07:10;13.38;;;8.70;;
84260;SDS011;74405;44.868;18.808;2024-02-21T03:09:39;15.38;;;8.98;;
84260;SDS011;74405;44.868;18.808;2024-02-21T03:12:08;15.63;;;9.15;;
84260;SDS011;74405;44.868;18.808;2024-02-21T03:14:33;16.05;;;8.85;;
84260;SDS011;74405;44.868;18.808;2024-02-21T03:16:59;13.70;;;8.63;;
84260;SDS011;74405;44.868;18.808;2024-02-21T03:19:25;13.30;;;8.63;;
84260;SDS011;74405;44.868;18.808;2024-02-21T03:21:51;13.48;;;7.75;;
84260;SDS011;74405;44.868;18.808;2024-02-21T03:24:16;13.75;;;8.27;;
84260;SDS011;74405;44.868;18.808;2024-02-21T03:26:42;13.50;;;8.88;;
84260;SDS011;74405;44.868;18.808;2024-02-21T03:29:07;17.23;;;9.50;;
84260;SDS011;74405;44.868;18.808;2024-02-21T03:31:34;23.00;;;11.68;;
84260;SDS011;74405;44.868;18.808;2024-02-21T03:34:00;17.58;;;10.90;;
84260;SDS011;74405;44.868;18.808;2024-02-21T03:36:25;15.82;;;9.60;;
84260;SDS011;74405;44.868;18.808;2024-02-21T03:38:51;18.33;;;10.80;;
84260;SDS011;74405;44.868;18.808;2024-02-21T03:41:16;18.02;;;10.32;;
84260;SDS011;74405;44.868;18.808;2024-02-21T03:43:42;11.93;;;9.40;;
84260;SDS011;74405;44.868;18.808;2024-02-21T03:46:07;14.90;;;9.80;;
84260;SDS011;74405;44.868;18.808;2024-02-21T03:48:33;14.38;;;9.40;;
84260;SDS011;74405;44.868;18.808;2024-02-21T03:50:58;11.18;;;8.63;;
84260;SDS011;74405;44.868;18.808;2024-02-21T03:53:24;13.77;;;9.70;;
84260;SDS011;74405;44.868;18.808;2024-02-21T03:55:49;15.18;;;9.68;;
84260;SDS011;74405;44.868;18.808;2024-02-21T03:58:15;13.10;;;8.93;;
84260;SDS011;74405;44.868;18.808;2024-02-21T04:00:40;11.43;;;8.60;;
84260;SDS011;74405;44.868;18.808;2024-02-21T04:03:06;14.90;;;9.57;;
84260;SDS011;74405;44.868;18.808;2024-02-21T04:05:32;14.00;;;7.50;;
84260;SDS011;74405;44.868;18.808;2024-02-21T04:07:57;13.40;;;8.73;;
84260;SDS011;74405;44.868;18.808;2024-02-21T04:10:22;13.50;;;8.60;;
84260;SDS011;74405;44.868;18.808;2024-02-21T04:12:48;12.65;;;7.90;;
84260;SDS011;74405;44.868;18.808;2024-02-21T04:15:16;13.27;;;7.95;;
84260;SDS011;74405;44.868;18.808;2024-02-21T04:17:41;15.52;;;8.80;;
84260;SDS011;74405;44.868;18.808;2024-02-21T04:20:13;13.82;;;8.52;;
84260;SDS011;74405;44.868;18.808;2024-02-21T04:22:38;12.40;;;8.23;;
84260;SDS011;74405;44.868;18.808;2024-02-21T04:25:04;14.73;;;8.45;;
84260;SDS011;74405;44.868;18.808;2024-02-21T04:27:29;10.20;;;7.38;;
84260;SDS011;74405;44.868;18.808;2024-02-21T04:29:55;11.80;;;7.50;;
84260;SDS011;74405;44.868;18.808;2024-02-21T04:32:20;10.48;;;7.50;;
84260;SDS011;74405;44.868;18.808;2024-02-21T04:34:46;13.20;;;7.72;;
84260;SDS011;74405;44.868;18.808;2024-02-21T04:37:11;11.55;;;7.13;;
84260;SDS011;74405;44.868;18.808;2024-02-21T04:39:36;12.18;;;6.78;;
84260;SDS011;74405;44.868;18.808;2024-02-21T04:42:03;11.70;;;6.60;;
84260;SDS011;74405;44.868;18.808;2024-02-21T04:44:29;12.00;;;7.05;;
84260;SDS011;74405;44.868;18.808;2024-02-21T04:46:54;9.30;;;6.65;;
84260;SDS011;74405;44.868;18.808;2024-02-21T04:49:20;8.88;;;7.15;;
84260;SDS011;74405;44.868;18.808;2024-02-21T04:51:45;9.32;;;6.68;;
84260;SDS011;74405;44.868;18.808;2024-02-21T04:54:11;10.93;;;6.68;;
84260;SDS011;74405;44.868;18.808;2024-02-21T04:56:36;11.77;;;6.88;;
84260;SDS011;74405;44.868;18.808;2024-02-21T04:59:01;12.30;;;6.35;;
84260;SDS011;74405;44.868;18.808;2024-02-21T05:01:30;10.43;;;6.88;;
84260;SDS011;74405;44.868;18.808;2024-02-21T05:03:56;14.43;;;7.40;;
84260;SDS011;74405;44.868;18.808;2024-02-21T05:06:21;9.68;;;6.55;;
84260;SDS011;74405;44.868;18.808;2024-02-21T05:08:47;8.68;;;6.85;;
84260;SDS011;74405;44.868;18.808;2024-02-21T05:11:13;10.20;;;7.10;;
84260;SDS011;74405;44.868;18.808;2024-02-21T05:13:38;14.50;;;8.82;;
84260;SDS011;74405;44.868;18.808;2024-02-21T05:16:04;13.65;;;8.30;;
84260;SDS011;74405;44.868;18.808;2024-02-21T05:18:29;14.30;;;7.43;;
84260;SDS011;74405;44.868;18.808;2024-02-21T05:20:55;11.07;;;7.80;;
84260;SDS011;74405;44.868;18.808;2024-02-21T05:23:20;10.02;;;7.63;;
84260;SDS011;74405;44.868;18.808;2024-02-21T05:25:46;11.27;;;7.63;;
84260;SDS011;74405;44.868;18.808;2024-02-21T05:28:11;9.27;;;6.60;;
84260;SDS011;74405;44.868;18.808;2024-02-21T05:30:37;10.55;;;6.72;;
84260;SDS011;74405;44.868;18.808;2024-02-21T05:33:05;9.40;;;6.25;;
84260;SDS011;74405;44.868;18.808;2024-02-21T05:35:31;13.25;;;7.18;;
84260;SDS011;74405;44.868;18.808;2024-02-21T05:37:57;16.08;;;9.88;;
84260;SDS011;74405;44.868;18.808;2024-02-21T05:40:22;16.48;;;10.40;;
84260;SDS011;74405;44.868;18.808;2024-02-21T05:42:48;22.20;;;12.60;;
84260;SDS011;74405;44.868;18.808;2024-02-21T05:45:14;20.55;;;12.27;;
84260;SDS011;74405;44.868;18.808;2024-02-21T05:47:41;22.55;;;12.18;;
84260;SDS011;74405;44.868;18.808;2024-02-21T05:50:06;22.15;;;11.63;;
84260;SDS011;74405;44.868;18.808;2024-02-21T05:52:31;18.50;;;9.38;;
84260;SDS011;74405;44.868;18.808;2024-02-21T05:54:57;18.48;;;10.40;;
84260;SDS011;74405;44.868;18.808;2024-02-21T05:57:23;12.85;;;7.78;;
84260;SDS011;74405;44.868;18.808;2024-02-21T05:59:48;14.98;;;8.20;;
84260;SDS011;74405;44.868;18.808;2024-02-21T06:02:14;13.27;;;7.38;;
84260;SDS011;74405;44.868;18.808;2024-02-21T06:04:40;11.75;;;7.72;;
84260;SDS011;74405;44.868;18.808;2024-02-21T06:07:05;14.60;;;8.60;;
84260;SDS011;74405;44.868;18.808;2024-02-21T06:09:31;15.00;;;9.18;;
84260;SDS011;74405;44.868;18.808;2024-02-21T06:11:57;16.30;;;9.40;;
84260;SDS011;74405;44.868;18.808;2024-02-21T06:14:22;16.17;;;9.75;;
84260;SDS011;74405;44.868;18.808;2024-02-21T06:16:48;20.65;;;11.77;;
84260;SDS011;74405;44.868;18.808;2024-02-21T06:19:13;24.10;;;13.52;;
84260;SDS011;74405;44.868;18.808;2024-02-21T06:21:40;19.80;;;9.82;;
84260;SDS011;74405;44.868;18.808;2024-02-21T06:24:05;16.15;;;10.45;;
84260;SDS011;74405;44.868;18.808;2024-02-21T06:26:31;19.90;;;12.07;;
84260;SDS011;74405;44.868;18.808;2024-02-21T06:28:57;15.60;;;8.90;;
84260;SDS011;74405;44.868;18.808;2024-02-21T06:31:24;17.70;;;10.07;;
84260;SDS011;74405;44.868;18.808;2024-02-21T06:33:50;20.92;;;11.25;;
84260;SDS011;74405;44.868;18.808;2024-02-21T06:36:16;29.27;;;14.70;;
84260;SDS011;74405;44.868;18.808;2024-02-21T06:38:41;30.95;;;15.73;;
84260;SDS011;74405;44.868;18.808;2024-02-21T06:41:14;36.10;;;16.80;;
84260;SDS011;74405;44.868;18.808;2024-02-21T06:43:40;35.40;;;16.88;;
84260;SDS011;74405;44.868;18.808;2024-02-21T06:46:05;26.38;;;15.13;;
84260;SDS011;74405;44.868;18.808;2024-02-21T06:48:31;26.52;;;14.35;;
84260;SDS011;74405;44.868;18.808;2024-02-21T06:50:56;23.02;;;14.85;;
84260;SDS011;74405;44.868;18.808;2024-02-21T06:53:22;20.80;;;13.95;;
84260;SDS011;74405;44.868;18.808;2024-02-21T06:55:47;17.20;;;10.65;;
84260;SDS011;74405;44.868;18.808;2024-02-21T06:58:13;15.00;;;10.25;;
84260;SDS011;74405;44.868;18.808;2024-02-21T07:00:39;15.45;;;8.95;;
84260;SDS011;74405;44.868;18.808;2024-02-21T07:03:05;13.38;;;9.52;;
84260;SDS011;74405;44.868;18.808;2024-02-21T07:05:30;20.77;;;13.82;;
84260;SDS011;74405;44.868;18.808;2024-02-21T07:07:56;18.30;;;11.90;;
84260;SDS011;74405;44.868;18.808;2024-02-21T07:10:21;17.02;;;10.65;;
84260;SDS011;74405;44.868;18.808;2024-02-21T07:12:47;16.92;;;9.63;;
84260;SDS011;74405;44.868;18.808;2024-02-21T07:15:13;23.17;;;13.73;;
84260;SDS011;74405;44.868;18.808;2024-02-21T07:17:39;62.58;;;27.63;;
84260;SDS011;74405;44.868;18.808;2024-02-21T07:20:05;65.40;;;31.88;;
84260;SDS011;74405;44.868;18.808;2024-02-21T07:22:31;74.30;;;33.78;;
84260;SDS011;74405;44.868;18.808;2024-02-21T07:24:57;70.80;;;34.05;;
84260;SDS011;74405;44.868;18.808;2024-02-21T07:27:22;49.10;;;26.45;;
84260;SDS011;74405;44.868;18.808;2024-02-21T07:29:48;28.63;;;16.02;;
84260;SDS011;74405;44.868;18.808;2024-02-21T07:32:14;18.75;;;12.15;;
84260;SDS011;74405;44.868;18.808;2024-02-21T07:34:40;14.45;;;10.95;;
84260;SDS011;74405;44.868;18.808;2024-02-21T07:37:05;16.08;;;10.20;;
84260;SDS011;74405;44.868;18.808;2024-02-21T07:39:31;11.35;;;7.95;;
84260;SDS011;74405;44.868;18.808;2024-02-21T07:41:56;12.95;;;7.80;;
84260;SDS011;74405;44.868;18.808;2024-02-21T07:44:22;9.65;;;6.00;;
84260;SDS011;74405;44.868;18.808;2024-02-21T07:46:48;10.27;;;5.70;;
84260;SDS011;74405;44.868;18.808;2024-02-21T07:49:13;9.73;;;5.97;;
84260;SDS011;74405;44.868;18.808;2024-02-21T07:51:39;5.13;;;3.92;;
84260;SDS011;74405;44.868;18.808;2024-02-21T07:54:04;13.40;;;5.65;;
84260;SDS011;74405;44.868;18.808;2024-02-21T07:56:30;13.05;;;6.32;;
84260;SDS011;74405;44.868;18.808;2024-02-21T07:58:56;8.20;;;5.13;;
84260;SDS011;74405;44.868;18.808;2024-02-21T08:01:21;8.05;;;5.20;;
84260;SDS011;74405;44.868;18.808;2024-02-21T08:03:48;8.07;;;5.10;;
84260;SDS011;74405;44.868;18.808;2024-02-21T08:06:14;11.77;;;5.35;;
84260;SDS011;74405;44.868;18.808;2024-02-21T08:08:44;14.60;;;6.93;;
84260;SDS011;74405;44.868;18.808;2024-02-21T08:11:28;11.35;;;6.57;;
84260;SDS011;74405;44.868;18.808;2024-02-21T08:13:54;14.68;;;7.80;;
84260;SDS011;74405;44.868;18.808;2024-02-21T08:16:20;10.77;;;6.25;;
84260;SDS011;74405;44.868;18.808;2024-02-21T08:18:45;7.53;;;4.90;;
84260;SDS011;74405;44.868;18.808;2024-02-21T08:21:11;8.73;;;5.28;;
84260;SDS011;74405;44.868;18.808;2024-02-21T08:23:37;12.45;;;6.80;;
84260;SDS011;74405;44.868;18.808;2024-02-21T08:26:04;13.65;;;7.63;;
84260;SDS011;74405;44.868;18.808;2024-02-21T08:28:38;11.90;;;7.18;;
84260;SDS011;74405;44.868;18.808;2024-02-21T08:31:04;12.30;;;7.38;;
84260;SDS011;74405;44.868;18.808;2024-02-21T08:33:29;14.50;;;7.25;;
84260;SDS011;74405;44.868;18.808;2024-02-21T08:35:55;10.20;;;6.45;;
84260;SDS011;74405;44.868;18.808;2024-02-21T08:38:21;11.75;;;6.35;;
84260;SDS011;74405;44.868;18.808;2024-02-21T08:40:46;11.27;;;6.72;;
84260;SDS011;74405;44.868;18.808;2024-02-21T08:43:12;15.57;;;7.97;;
84260;SDS011;74405;44.868;18.808;2024-02-21T08:45:37;11.30;;;8.30;;
84260;SDS011;74405;44.868;18.808;2024-02-21T08:48:06;15.95;;;9.27;;
84260;SDS011;74405;44.868;18.808;2024-02-21T08:50:32;15.52;;;8.77;;
84260;SDS011;74405;44.868;18.808;2024-02-21T08:52:57;17.25;;;11.07;;
84260;SDS011;74405;44.868;18.808;2024-02-21T08:55:23;14.48;;;9.70;;
84260;SDS011;74405;44.868;18.808;2024-02-21T08:57:49;17.85;;;9.52;;
84260;SDS011;74405;44.868;18.808;2024-02-21T09:00:15;20.90;;;11.70;;
84260;SDS011;74405;44.868;18.808;2024-02-21T09:02:41;22.35;;;9.60;;
84260;SDS011;74405;44.868;18.808;2024-02-21T09:05:08;10.75;;;7.05;;
84260;SDS011;74405;44.868;18.808;2024-02-21T09:07:34;12.75;;;7.68;;
84260;SDS011;74405;44.868;18.808;2024-02-21T09:10:06;13.70;;;7.05;;
84260;SDS011;74405;44.868;18.808;2024-02-21T09:12:31;9.60;;;6.15;;
84260;SDS011;74405;44.868;18.808;2024-02-21T09:14:58;9.55;;;5.82;;
84260;SDS011;74405;44.868;18.808;2024-02-21T09:17:23;13.30;;;7.55;;
84260;SDS011;74405;44.868;18.808;2024-02-21T09:19:50;9.45;;;5.65;;
84260;SDS011;74405;44.868;18.808;2024-02-21T09:22:16;8.05;;;5.57;;
84260;SDS011;74405;44.868;18.808;2024-02-21T09:24:41;12.18;;;6.45;;
84260;SDS011;74405;44.868;18.808;2024-02-21T09:27:07;12.70;;;7.40;;
84260;SDS011;74405;44.868;18.808;2024-02-21T09:29:32;13.07;;;8.32;;
84260;SDS011;74405;44.868;18.808;2024-02-21T09:32:01;15.43;;;8.93;;
84260;SDS011;74405;44.868;18.808;2024-02-21T09:34:28;15.43;;;7.15;;
84260;SDS011;74405;44.868;18.808;2024-02-21T09:36:54;11.82;;;6.85;;
84260;SDS011;74405;44.868;18.808;2024-02-21T09:39:19;10.90;;;6.80;;
84260;SDS011;74405;44.868;18.808;2024-02-21T09:41:50;10.43;;;5.47;;
84260;SDS011;74405;44.868;18.808;2024-02-21T09:44:21;11.13;;;4.80;;
84260;SDS011;74405;44.868;18.808;2024-02-21T09:46:57;10.02;;;4.13;;
84260;SDS011;74405;44.868;18.808;2024-02-21T09:51:53;11.18;;;5.07;;
84260;SDS011;74405;44.868;18.808;2024-02-21T09:54:19;6.82;;;3.80;;
84260;SDS011;74405;44.868;18.808;2024-02-21T09:56:46;10.27;;;5.72;;
84260;SDS011;74405;44.868;18.808;2024-02-21T09:59:13;8.70;;;4.30;;
84260;SDS011;74405;44.868;18.808;2024-02-21T10:01:39;7.50;;;3.13;;
84260;SDS011;74405;44.868;18.808;2024-02-21T10:04:04;7.43;;;4.53;;
84260;SDS011;74405;44.868;18.808;2024-02-21T10:06:30;10.30;;;4.45;;
84260;SDS011;74405;44.868;18.808;2024-02-21T10:08:55;9.75;;;5.70;;
84260;SDS011;74405;44.868;18.808;2024-02-21T10:11:24;6.35;;;2.28;;
84260;SDS011;74405;44.868;18.808;2024-02-21T10:13:50;4.95;;;2.20;;
84260;SDS011;74405;44.868;18.808;2024-02-21T10:16:16;7.45;;;2.13;;
84260;SDS011;74405;44.868;18.808;2024-02-21T10:18:41;5.20;;;2.95;;
84260;SDS011;74405;44.868;18.808;2024-02-21T10:21:07;3.08;;;2.00;;
84260;SDS011;74405;44.868;18.808;2024-02-21T10:26:09;7.60;;;2.38;;
84260;SDS011;74405;44.868;18.808;2024-02-21T10:28:34;6.35;;;2.00;;
84260;SDS011;74405;44.868;18.808;2024-02-21T10:31:00;5.82;;;2.67;;
84260;SDS011;74405;44.868;18.808;2024-02-21T10:33:25;4.65;;;3.17;;
84260;SDS011;74405;44.868;18.808;2024-02-21T10:35:53;6.78;;;2.85;;
84260;SDS011;74405;44.868;18.808;2024-02-21T10:38:18;7.25;;;2.95;;
84260;SDS011;74405;44.868;18.808;2024-02-21T10:40:44;8.10;;;3.45;;
84260;SDS011;74405;44.868;18.808;2024-02-21T10:43:12;6.30;;;2.70;;
84260;SDS011;74405;44.868;18.808;2024-02-21T10:45:37;5.35;;;2.30;;
84260;SDS011;74405;44.868;18.808;2024-02-21T10:48:13;7.82;;;3.10;;
84260;SDS011;74405;44.868;18.808;2024-02-21T10:50:47;8.35;;;3.75;;
84260;SDS011;74405;44.868;18.808;2024-02-21T10:53:22;12.32;;;3.47;;
84260;SDS011;74405;44.868;18.808;2024-02-21T10:55:56;5.35;;;2.67;;
84260;SDS011;74405;44.868;18.808;2024-02-21T10:58:23;11.68;;;4.45;;
84260;SDS011;74405;44.868;18.808;2024-02-21T11:00:50;9.73;;;4.53;;
84260;SDS011;74405;44.868;18.808;2024-02-21T11:03:16;9.07;;;5.00;;
84260;SDS011;74405;44.868;18.808;2024-02-21T11:05:42;5.05;;;2.65;;
84260;SDS011;74405;44.868;18.808;2024-02-21T11:08:10;3.55;;;2.10;;
84260;SDS011;74405;44.868;18.808;2024-02-21T11:10:36;8.57;;;3.97;;
84260;SDS011;74405;44.868;18.808;2024-02-21T11:13:06;10.45;;;4.28;;
84260;SDS011;74405;44.868;18.808;2024-02-21T11:15:32;8.95;;;4.47;;
84260;SDS011;74405;44.868;18.808;2024-02-21T11:17:58;10.73;;;4.68;;
84260;SDS011;74405;44.868;18.808;2024-02-21T11:20:34;6.53;;;3.13;;
84260;SDS011;74405;44.868;18.808;2024-02-21T11:22:59;7.03;;;3.20;;
84260;SDS011;74405;44.868;18.808;2024-02-21T11:25:26;4.93;;;3.05;;
84260;SDS011;74405;44.868;18.808;2024-02-21T11:27:59;5.63;;;2.88;;
84260;SDS011;74405;44.868;18.808;2024-02-21T11:30:29;5.88;;;2.85;;
84260;SDS011;74405;44.868;18.808;2024-02-21T11:33:07;5.00;;;2.80;;
84260;SDS011;74405;44.868;18.808;2024-02-21T11:35:33;6.32;;;3.28;;
84260;SDS011;74405;44.868;18.808;2024-02-21T11:38:09;7.50;;;3.30;;
84260;SDS011;74405;44.868;18.808;2024-02-21T11:40:38;6.57;;;3.55;;
84260;SDS011;74405;44.868;18.808;2024-02-21T11:43:03;7.25;;;2.75;;
84260;SDS011;74405;44.868;18.808;2024-02-21T11:45:29;6.05;;;2.83;;
84260;SDS011;74405;44.868;18.808;2024-02-21T11:47:54;6.03;;;2.80;;
84260;SDS011;74405;44.868;18.808;2024-02-21T11:50:20;5.20;;;2.22;;
84260;SDS011;74405;44.868;18.808;2024-02-21T11:52:47;7.95;;;3.35;;
84260;SDS011;74405;44.868;18.808;2024-02-21T11:55:13;12.60;;;4.80;;
84260;SDS011;74405;44.868;18.808;2024-02-21T12:00:35;10.27;;;3.92;;
84260;SDS011;74405;44.868;18.808;2024-02-21T12:03:01;8.18;;;3.42;;
84260;SDS011;74405;44.868;18.808;2024-02-21T12:05:27;10.27;;;3.80;;
84260;SDS011;74405;44.868;18.808;2024-02-21T12:07:54;8.90;;;3.33;;
84260;SDS011;74405;44.868;18.808;2024-02-21T12:10:21;11.63;;;5.18;;
84260;SDS011;74405;44.868;18.808;2024-02-21T12:12:47;25.52;;;13.02;;
84260;SDS011;74405;44.868;18.808;2024-02-21T12:15:13;8.15;;;4.00;;
84260;SDS011;74405;44.868;18.808;2024-02-21T12:17:42;10.07;;;4.05;;
84260;SDS011;74405;44.868;18.808;2024-02-21T12:20:08;15.15;;;5.88;;
84260;SDS011;74405;44.868;18.808;2024-02-21T12:22:42;8.00;;;4.05;;
84260;SDS011;74405;44.868;18.808;2024-02-21T12:25:27;8.23;;;3.60;;
84260;SDS011;74405;44.868;18.808;2024-02-21T12:27:53;5.60;;;2.22;;
84260;SDS011;74405;44.868;18.808;2024-02-21T12:30:19;5.88;;;2.17;;
84260;SDS011;74405;44.868;18.808;2024-02-21T12:32:45;7.35;;;2.80;;
84260;SDS011;74405;44.868;18.808;2024-02-21T12:35:10;11.68;;;4.32;;
84260;SDS011;74405;44.868;18.808;2024-02-21T12:37:36;5.90;;;2.13;;
84260;SDS011;74405;44.868;18.808;2024-02-21T12:40:06;6.55;;;2.65;;
84260;SDS011;74405;44.868;18.808;2024-02-21T12:42:39;6.05;;;3.05;;
84260;SDS011;74405;44.868;18.808;2024-02-21T12:45:06;6.30;;;2.35;;
84260;SDS011;74405;44.868;18.808;2024-02-21T12:47:33;6.18;;;2.13;;
84260;SDS011;74405;44.868;18.808;2024-02-21T12:49:58;7.07;;;2.75;;
84260;SDS011;74405;44.868;18.808;2024-02-21T12:52:24;8.40;;;3.30;;
84260;SDS011;74405;44.868;18.808;2024-02-21T12:54:50;8.82;;;3.40;;
84260;SDS011;74405;44.868;18.808;2024-02-21T12:57:18;11.35;;;3.78;;
84260;SDS011;74405;44.868;18.808;2024-02-21T12:59:43;8.60;;;4.00;;
84260;SDS011;74405;44.868;18.808;2024-02-21T13:02:09;10.20;;;4.55;;
84260;SDS011;74405;44.868;18.808;2024-02-21T13:04:35;7.35;;;2.95;;
84260;SDS011;74405;44.868;18.808;2024-02-21T13:07:02;6.90;;;2.00;;
84260;SDS011;74405;44.868;18.808;2024-02-21T13:09:27;5.70;;;2.47;;
84260;SDS011;74405;44.868;18.808;2024-02-21T13:11:53;7.90;;;2.95;;
84260;SDS011;74405;44.868;18.808;2024-02-21T13:14:19;8.25;;;2.97;;
84260;SDS011;74405;44.868;18.808;2024-02-21T13:16:44;5.38;;;2.42;;
84260;SDS011;74405;44.868;18.808;2024-02-21T13:19:10;6.10;;;2.50;;
84260;SDS011;74405;44.868;18.808;2024-02-21T13:21:35;6.82;;;2.83;;
84260;SDS011;74405;44.868;18.808;2024-02-21T13:24:02;8.90;;;2.65;;
84260;SDS011;74405;44.868;18.808;2024-02-21T13:26:28;6.68;;;2.25;;
84260;SDS011;74405;44.868;18.808;2024-02-21T13:28:53;3.83;;;1.60;;
84260;SDS011;74405;44.868;18.808;2024-02-21T13:31:19;5.20;;;2.10;;
84260;SDS011;74405;44.868;18.808;2024-02-21T13:33:45;5.15;;;2.17;;
84260;SDS011;74405;44.868;18.808;2024-02-21T13:36:11;4.60;;;2.70;;
84260;SDS011;74405;44.868;18.808;2024-02-21T13:38:36;8.57;;;3.60;;
84260;SDS011;74405;44.868;18.808;2024-02-21T13:41:07;9.85;;;4.65;;
84260;SDS011;74405;44.868;18.808;2024-02-21T13:43:33;8.23;;;4.30;;
84260;SDS011;74405;44.868;18.808;2024-02-21T13:45:59;5.82;;;2.85;;
84260;SDS011;74405;44.868;18.808;2024-02-21T13:48:25;7.68;;;3.90;;
84260;SDS011;74405;44.868;18.808;2024-02-21T13:50:52;8.15;;;3.38;;
84260;SDS011;74405;44.868;18.808;2024-02-21T13:53:18;8.02;;;2.65;;
84260;SDS011;74405;44.868;18.808;2024-02-21T13:55:46;9.40;;;2.65;;
84260;SDS011;74405;44.868;18.808;2024-02-21T13:58:12;5.20;;;2.45;;
84260;SDS011;74405;44.868;18.808;2024-02-21T14:00:37;6.63;;;2.28;;
84260;SDS011;74405;44.868;18.808;2024-02-21T14:03:03;6.80;;;2.67;;
84260;SDS011;74405;44.868;18.808;2024-02-21T14:05:29;5.18;;;2.42;;
84260;SDS011;74405;44.868;18.808;2024-02-21T14:07:56;7.05;;;3.10;;
84260;SDS011;74405;44.868;18.808;2024-02-21T14:10:22;6.32;;;2.28;;
84260;SDS011;74405;44.868;18.808;2024-02-21T14:12:47;4.88;;;2.35;;
84260;SDS011;74405;44.868;18.808;2024-02-21T14:15:18;6.75;;;1.95;;
84260;SDS011;74405;44.868;18.808;2024-02-21T14:17:43;8.65;;;2.28;;
84260;SDS011;74405;44.868;18.808;2024-02-21T14:20:09;7.22;;;2.75;;
84260;SDS011;74405;44.868;18.808;2024-02-21T14:22:35;6.05;;;2.25;;
84260;SDS011;74405;44.868;18.808;2024-02-21T14:25:05;5.90;;;2.53;;
84260;SDS011;74405;44.868;18.808;2024-02-21T14:27:31;5.75;;;2.50;;
84260;SDS011;74405;44.868;18.808;2024-02-21T14:29:56;7.57;;;2.97;;
84260;SDS011;74405;44.868;18.808;2024-02-21T14:32:22;9.07;;;4.15;;